Airfield :







YOU CAN JOIN US ON...

 
LOGIN :

Register | Disclaimer

   EN    FR    IT 

 









Legend :    VFR   Marginal VFR   IFR   Intensive IFR   Very Intensive IFR
Visi :
Ceiling :
>= 8 km
>= 3000ft
5 to 8 km
1000 to 3000 ft
1500m to 5 km
500 to 1000 ft
800 to 1500m
200 to 500 ft
< 800m
< 200 ft
Symbols :   Thunderstorms  Fog  Heavy snow  Heavy precipitations  Wind > 20 kt







- Airport Elevation : 129 ft
- IATA code : YVP


CYVP - Kuujjuak

CURRENT METAR :
  • 160200Z 36005KT 310V010 6SM BR OVC004 03/03 A3008 RMK ST8 SLP192

EXPIRED METARs :
  • 160100Z 34005KT 6SM BR OVC004 03/03 A3007 RMK ST8 SLP188
  • 160027Z 34005KT 320V020 6SM BR OVC004 03/03 A3007 RMK ST8 SLP186
  • 160000Z 35008KT 320V020 15SM OVC005 04/03 A3006 RMK ST8 SLP184

TAF TAF CYVP
Valid from the 16 at 00:00 until the 16 at 12:00 UTC


152338Z 1600/1612 33008KT P6SM FEW004 OVC006
TEMPO 1600/1606 2SM BR BKN004 OVC006
FM160600 VRB03KT 1/2SM FG VV002
TEMPO 1606/1612 3SM BR OVC004
PROB30 1606/1612 1/4SM FG VV001 RMK NXT FCST BY 160600Z
No reported NOTAMs for that airfield.



MET'MAP, your aeronautical weather chart ! - Copyright ORBIFLY December 2007 - Disclaimer

ORBIFLY MET'MAP TEAM :

Programming & Development : Alexandra Zaïnal
Concept & Development : Baudouin d'Aumeries
Co-Development & Prog : Marc-Olivier Méhu
Technical & hardware support : Manuel Goepfert

Contact : metmap@orbifly.com




SOURCES & CREDITS :

   NOAA